Time;durP1;ratioP1;P1;durP2;ratioP2;P2;SDS_P1;SDS_P2;PMS_P1;PMS_P2;Temp;Humidity;BMP_temperature;BMP_pressure;BME280_temperature;BME280_humidity;BME280_pressure;Samples;Min_cycle;Max_cycle;Signal;HPM_P1;HPM_P2
2022/08/18 00:01:21;;;;;;;10.50;6.97;;;;;;;18.88;100.00;100157.19;6249311;28;20034;-89
2022/08/18 00:04:23;;;;;;;9.02;7.30;;;;;;;18.94;100.00;100151.19;6244108;28;20049;-90
2022/08/18 00:07:37;;;;;;;11.02;7.22;;;;;;;18.92;100.00;100158.44;6252608;28;20045;-90
2022/08/18 00:10:47;;;;;;;;;;;;;;;18.89;100.00;100169.31;6240576;28;20491;-90
2022/08/18 00:13:49;;;;;;;9.75;7.05;;;;;;;18.85;100.00;100165.41;6239484;28;20344;-90
2022/08/18 00:16:52;;;;;;;9.32;7.50;;;;;;;18.86;100.00;100166.25;6243353;28;20111;-90
2022/08/18 00:19:54;;;;;;;9.73;7.97;;;;;;;18.83;100.00;100171.84;6266253;28;20052;-89
2022/08/18 00:22:56;;;;;;;9.93;7.32;;;;;;;18.84;100.00;100174.28;6247940;28;20566;-90
2022/08/18 00:25:59;;;;;;;10.82;7.25;;;;;;;18.84;100.00;100163.00;6242039;28;20040;-89
2022/08/18 00:29:00;;;;;;;11.93;8.93;;;;;;;18.87;100.00;100168.66;6250466;28;20742;-89
2022/08/18 00:32:13;;;;;;;11.13;8.25;;;;;;;18.87;100.00;100162.63;6259097;28;20080;-90
2022/08/18 00:35:26;;;;;;;15.15;12.05;;;;;;;18.91;100.00;100150.75;6259814;28;20082;-89
2022/08/18 00:38:29;;;;;;;16.27;12.55;;;;;;;19.00;100.00;100151.44;6261362;28;20087;-89
2022/08/18 00:41:31;;;;;;;15.60;12.43;;;;;;;18.97;100.00;100152.63;6254257;28;20053;-89
2022/08/18 00:44:33;;;;;;;18.02;13.07;;;;;;;19.00;100.00;100148.84;6242498;28;20045;-89
2022/08/18 00:47:34;;;;;;;19.35;13.95;;;;;;;18.94;100.00;100150.38;6247656;28;20123;-89
2022/08/18 00:50:56;;;;;;;22.67;16.17;;;;;;;18.94;100.00;100150.38;6248085;28;20577;-89
2022/08/18 00:54:04;;;;;;;23.13;16.33;;;;;;;18.94;100.00;100156.44;6244664;28;20037;-89
2022/08/18 00:57:07;;;;;;;23.10;16.35;;;;;;;18.92;100.00;100155.81;6262533;28;20148;-89
2022/08/18 01:00:16;;;;;;;19.65;16.10;;;;;;;18.92;100.00;100149.75;6261058;28;20041;-89
2022/08/18 01:03:20;;;;;;;22.58;16.38;;;;;;;18.91;100.00;100150.75;6262790;28;20106;-89
2022/08/18 01:06:41;;;;;;;23.15;16.83;;;;;;;18.89;100.00;100156.19;6264340;28;20547;-89
2022/08/18 01:09:43;;;;;;;27.23;19.15;;;;;;;18.88;100.00;100156.34;6261984;28;20105;-89
2022/08/18 01:12:49;;;;;;;24.17;17.77;;;;;;;18.87;100.00;100154.75;6256619;28;20795;-89
2022/08/18 01:15:50;;;;;;;25.60;18.80;;;;;;;18.86;100.00;100155.75;6248957;28;20041;-89
2022/08/18 01:22:17;;;;;;;;;;;;;;;18.77;100.00;100152.41;6257068;28;20033;-89
2022/08/18 01:28:44;;;;;;;28.95;20.05;;;;;;;18.69;100.00;100163.78;6250052;28;20501;-89
2022/08/18 01:31:53;;;;;;;26.80;20.45;;;;;;;18.68;100.00;100158.72;6243775;28;20407;-89
2022/08/18 01:34:56;;;;;;;29.85;21.35;;;;;;;18.71;100.00;100161.81;6269408;28;20482;-89
2022/08/18 01:37:58;;;;;;;29.17;21.13;;;;;;;18.70;100.00;100161.97;6261492;28;20471;-89
2022/08/18 01:40:59;;;;;;;31.55;21.20;;;;;;;18.67;100.00;100162.34;6250111;28;20044;-89
2022/08/18 01:44:21;;;;;;;30.08;21.08;;;;;;;18.66;100.00;100155.50;6256229;28;20037;-89
2022/08/18 01:47:23;;;;;;;26.52;20.05;;;;;;;18.59;100.00;100167.69;6248445;28;20440;-89
2022/08/18 01:50:26;;;;;;;26.08;18.67;;;;;;;18.52;100.00;100172.84;6255774;28;20706;-89
2022/08/18 01:53:27;;;;;;;32.13;20.52;;;;;;;18.44;100.00;100159.84;6253911;28;20042;-89
2022/08/18 01:56:30;;;;;;;29.10;21.02;;;;;;;18.37;100.00;100166.81;6271927;28;20476;-89
2022/08/18 01:59:34;;;;;;;26.33;20.55;;;;;;;18.34;100.00;100164.53;6257191;28;20358;-89
2022/08/18 02:02:37;;;;;;;27.02;20.30;;;;;;;18.28;100.00;100166.91;6252724;28;20110;-89
2022/08/18 02:05:49;;;;;;;28.38;22.20;;;;;;;18.23;100.00;100161.34;6255913;28;20509;-89
2022/08/18 02:08:51;;;;;;;29.10;22.17;;;;;;;18.17;100.00;100159.47;6256838;28;20033;-89
2022/08/18 02:11:55;;;;;;;32.47;22.88;;;;;;;18.15;100.00;100156.22;6251732;28;20049;-89
2022/08/18 02:14:56;;;;;;;33.67;23.67;;;;;;;18.15;100.00;100158.84;6257915;28;20051;-89
2022/08/18 02:17:59;;;;;;;29.48;21.65;;;;;;;18.16;100.00;100164.88;6257785;28;20048;-89
2022/08/18 02:21:16;;;;;;;28.45;21.33;;;;;;;18.18;100.00;100170.75;6259023;28;20044;-89
2022/08/18 02:24:19;;;;;;;28.85;21.00;;;;;;;18.25;100.00;100174.28;6253794;28;20048;-89
2022/08/18 02:27:21;;;;;;;26.30;19.48;;;;;;;18.25;100.00;100179.53;6238038;28;20034;-89
2022/08/18 02:30:23;;;;;;;25.70;20.50;;;;;;;18.20;100.00;100190.53;6250270;28;20417;-89
2022/08/18 02:33:25;;;;;;;29.23;21.27;;;;;;;18.16;100.00;100178.81;6257808;28;20044;-89
2022/08/18 02:36:27;;;;;;;28.95;20.10;;;;;;;18.12;100.00;100184.59;6254726;28;20048;-90
2022/08/18 02:39:29;;;;;;;27.58;20.30;;;;;;;18.05;100.00;100174.00;6243907;28;20467;-89
2022/08/18 02:42:31;;;;;;;27.25;18.98;;;;;;;18.06;100.00;100175.63;6256025;28;20222;-89
2022/08/18 02:45:33;;;;;;;26.88;18.45;;;;;;;18.11;100.00;100178.53;6252721;28;20048;-89
2022/08/18 02:48:34;;;;;;;22.23;17.98;;;;;;;18.21;100.00;100178.25;6248564;28;20048;-89
2022/08/18 02:51:37;;;;;;;23.92;18.60;;;;;;;18.27;100.00;100175.72;6251986;28;20052;-89
2022/08/18 02:54:38;;;;;;;25.10;19.27;;;;;;;18.30;100.00;100177.19;6255754;28;20435;-89
2022/08/18 02:57:45;;;;;;;25.83;19.23;;;;;;;18.26;100.00;100171.50;6249589;28;20187;-89
2022/08/18 03:00:47;;;;;;;24.83;19.23;;;;;;;18.23;100.00;100174.47;6251417;28;20083;-89
2022/08/18 03:03:49;;;;;;;25.52;19.65;;;;;;;18.24;100.00;100177.91;6242375;28;20044;-89
2022/08/18 03:06:52;;;;;;;27.90;19.77;;;;;;;18.19;100.00;100177.63;6250217;28;20075;-89
2022/08/18 03:09:55;;;;;;;25.40;18.90;;;;;;;18.17;100.00;100169.94;6255274;28;20430;-89
2022/08/18 03:12:56;;;;;;;24.15;19.20;;;;;;;18.15;100.00;100177.16;6243665;28;20068;-89
2022/08/18 03:15:58;;;;;;;30.60;20.67;;;;;;;18.06;100.00;100176.44;6252882;28;20087;-89
2022/08/18 03:19:00;;;;;;;29.38;21.45;;;;;;;18.11;100.00;100178.53;6256473;28;20368;-89
2022/08/18 03:22:04;;;;;;;28.58;21.15;;;;;;;18.11;100.00;100178.53;6257961;28;20040;-89
2022/08/18 03:25:26;;;;;;;28.25;20.20;;;;;;;18.08;100.00;100179.69;6248869;28;20553;-90
2022/08/18 03:28:28;;;;;;;28.48;21.75;;;;;;;18.08;100.00;100171.81;6244520;28;20043;-89
2022/08/18 03:31:30;;;;;;;26.35;19.98;;;;;;;18.05;100.00;100181.84;6252580;28;20048;-89
2022/08/18 03:34:32;;;;;;;26.33;20.38;;;;;;;18.05;100.00;100180.03;6252750;28;20045;-89
2022/08/18 03:37:34;;;;;;;32.03;20.40;;;;;;;18.08;100.00;100184.13;6251153;28;20051;-89
2022/08/18 03:40:36;;;;;;;29.52;21.10;;;;;;;18.06;100.00;100184.31;6243107;28;20442;-90
2022/08/18 03:43:38;;;;;;;30.63;22.05;;;;;;;18.04;100.00;100188.09;6253223;28;20526;-90
2022/08/18 03:46:52;;;;;;;29.90;21.52;;;;;;;18.01;100.00;100172.72;6249393;28;20047;-90
2022/08/18 03:49:54;;;;;;;31.52;22.98;;;;;;;17.97;100.00;100176.69;6239773;28;20064;-89
2022/08/18 03:52:58;;;;;;;29.88;21.98;;;;;;;17.93;100.00;100175.41;6258759;28;20231;-90
2022/08/18 03:56:00;;;;;;;31.92;23.13;;;;;;;17.91;100.00;100174.78;6259922;28;20071;-90
2022/08/18 03:59:30;;;;;;;32.28;23.33;;;;;;;17.88;100.00;100168.09;6254063;28;20036;-89
2022/08/18 04:02:32;;;;;;;34.60;23.80;;;;;;;17.88;100.00;100168.09;6250043;28;20446;-90
2022/08/18 04:05:39;;;;;;;35.33;24.25;;;;;;;17.82;100.00;100172.25;6232635;28;20053;-89
2022/08/18 04:08:41;;;;;;;34.63;24.15;;;;;;;17.80;100.00;100178.66;6257398;28;20064;-90
2022/08/18 04:11:43;;;;;;;34.97;25.25;;;;;;;17.76;100.00;100170.31;6260266;28;20506;-90
2022/08/18 04:14:47;;;;;;;37.33;26.35;;;;;;;17.70;100.00;100185.91;6253890;28;20395;-89
2022/08/18 04:17:50;;;;;;;38.67;26.40;;;;;;;17.67;100.00;100194.13;6260571;28;20052;-90
2022/08/18 04:21:07;;;;;;;42.30;27.67;;;;;;;17.64;100.00;100192.66;6283323;28;20052;-90
2022/08/18 04:24:11;;;;;;;37.60;26.33;;;;;;;17.65;100.00;100189.84;6244840;28;20041;-89
2022/08/18 04:27:13;;;;;;;41.25;25.95;;;;;;;17.63;100.00;100189.22;6273001;28;20502;-90
2022/08/18 04:30:15;;;;;;;40.42;26.85;;;;;;;17.63;100.00;100188.41;6265948;28;20048;-90
2022/08/18 04:33:16;;;;;;;36.78;25.45;;;;;;;17.62;100.00;100205.09;6248609;28;20037;-90
2022/08/18 04:36:18;;;;;;;40.70;27.10;;;;;;;17.60;100.00;100205.28;6249182;28;20094;-90
2022/08/18 04:39:22;;;;;;;39.15;27.42;;;;;;;17.61;100.00;100213.94;6260131;28;20072;-89
2022/08/18 04:42:25;;;;;;;36.90;26.50;;;;;;;17.63;100.00;100222.44;6250752;28;20152;-89
2022/08/18 04:45:29;;;;;;;38.47;26.73;;;;;;;17.64;100.00;100224.06;6252230;28;20497;-90
2022/08/18 04:48:32;;;;;;;38.22;25.95;;;;;;;17.62;100.00;100226.84;6257709;28;20041;-89
2022/08/18 04:51:35;;;;;;;37.33;25.05;;;;;;;17.67;100.00;100221.09;6256642;28;20407;-90
2022/08/18 04:54:56;;;;;;;39.50;26.08;;;;;;;17.75;100.00;100228.06;6252856;28;20098;-89
2022/08/18 04:57:59;;;;;;;37.30;24.63;;;;;;;17.81;100.00;100219.53;6243925;28;20604;-89
2022/08/18 05:01:01;;;;;;;36.70;24.52;;;;;;;17.85;100.00;100229.50;6253506;28;20407;-90
2022/08/18 05:04:03;;;;;;;33.50;23.92;;;;;;;17.95;100.00;100217.97;6259366;28;20029;-89
2022/08/18 05:07:09;;;;;;;34.83;24.52;;;;;;;18.02;100.00;100224.94;6260525;28;20034;-90
2022/08/18 05:10:12;;;;;;;34.72;24.88;;;;;;;18.11;100.00;100225.69;6259306;28;20530;-89
2022/08/18 05:13:16;;;;;;;34.08;24.65;;;;;;;18.18;100.00;100231.81;6257479;28;20553;-90
2022/08/18 05:16:18;;;;;;;37.40;25.08;;;;;;;18.29;100.00;100233.22;6254470;28;20037;-89
2022/08/18 05:19:29;;;;;;;34.35;24.52;;;;;;;18.37;100.00;100235.75;6266421;28;20395;-89
2022/08/18 05:22:42;;;;;;;35.72;24.98;;;;;;;18.41;100.00;100239.66;6237654;28;20046;-89
2022/08/18 05:25:43;;;;;;;36.72;24.40;;;;;;;18.45;100.00;100233.03;6255374;28;20044;-89
2022/08/18 05:28:46;;;;;;;38.28;25.38;;;;;;;18.49;100.00;100254.47;6254970;28;20354;-89
2022/08/18 05:31:50;;;;;;;35.80;25.55;;;;;;;18.58;100.00;100248.13;6248074;28;20477;-90
2022/08/18 05:34:52;;;;;;;38.08;25.05;;;;;;;18.69;100.00;100242.44;6253121;28;20064;-89
2022/08/18 05:38:07;;;;;;;36.60;25.05;;;;;;;18.90;100.00;100256.66;6246168;28;20044;-90
2022/08/18 05:41:13;;;;;;;31.92;22.85;;;;;;;19.08;100.00;100256.28;6260295;28;20037;-90
2022/08/18 05:44:21;;;;;;;34.40;23.27;;;;;;;19.13;100.00;100244.25;6252234;28;20084;-90
2022/08/18 05:47:26;;;;;;;32.10;22.67;;;;;;;19.22;100.00;100244.13;6257082;28;20134;-89
2022/08/18 05:50:31;;;;;;;36.90;23.98;;;;;;;19.24;100.00;100239.53;6253111;28;20044;-90
2022/08/18 05:56:55;;;;;;;;;;;;;;;19.23;100.00;100249.22;6259464;28;20047;-90
2022/08/18 05:59:58;;;;;;;35.88;24.48;;;;;;;19.23;100.00;100245.75;6252736;28;20429;-90
2022/08/18 06:03:31;;;;;;;36.70;24.75;;;;;;;19.25;100.00;100249.00;6255993;28;20068;-90
2022/08/18 06:06:49;;;;;;;36.42;25.45;;;;;;;19.28;100.00;100251.28;6246156;28;20032;-90
2022/08/18 06:09:53;;;;;;;38.58;25.67;;;;;;;19.26;100.00;100251.47;6256162;28;20037;-90
2022/08/18 06:12:58;;;;;;;41.33;26.80;;;;;;;19.28;100.00;100248.66;6272067;28;20402;-90
2022/08/18 06:16:12;;;;;;;39.05;27.50;;;;;;;19.26;100.00;100259.34;6259469;28;20036;-90
2022/08/18 06:19:48;;;;;;;39.65;26.65;;;;;;;19.22;100.00;100254.63;6257412;28;20033;-90
2022/08/18 06:23:00;;;;;;;40.15;26.90;;;;;;;19.18;100.00;100253.38;6259477;28;20053;-90
2022/08/18 06:26:20;;;;;;;43.17;28.83;;;;;;;19.14;100.00;100260.81;6255261;28;20383;-89
2022/08/18 06:30:04;;;;;;;42.83;29.02;;;;;;;19.12;100.00;100260.97;6244869;28;20399;-90
2022/08/18 06:33:44;;;;;;;45.50;29.98;;;;;;;19.18;100.00;100267.31;6257208;28;20456;-90
2022/08/18 06:36:55;;;;;;;45.13;29.73;;;;;;;19.21;100.00;100268.75;6259749;28;20498;-90
2022/08/18 06:39:57;;;;;;;44.30;29.98;;;;;;;19.25;100.00;100277.88;6260816;28;20053;-90
2022/08/18 06:42:59;;;;;;;47.88;29.77;;;;;;;19.29;100.00;100281.78;6244529;28;20049;-90
2022/08/18 06:46:11;;;;;;;47.13;32.22;;;;;;;19.38;100.00;100275.41;6256367;28;20048;-90
2022/08/18 06:49:35;;;;;;;46.38;30.35;;;;;;;19.46;100.00;100290.25;6264166;28;20068;-91
2022/08/18 06:52:49;;;;;;;48.53;31.98;;;;;;;19.55;100.00;100297.84;6253061;28;20060;-90
2022/08/18 06:55:51;;;;;;;48.28;32.22;;;;;;;19.77;100.00;100290.78;6255961;28;20472;-90
2022/08/18 06:59:12;;;;;;;54.67;33.22;;;;;;;20.12;100.00;100295.34;6255453;28;20505;-90
2022/08/18 07:02:29;;;;;;;49.13;32.80;;;;;;;20.48;100.00;100287.34;6256389;28;20045;-90
2022/08/18 07:05:37;;;;;;;47.05;31.48;;;;;;;20.63;100.00;100293.34;6251832;28;20904;-90
2022/08/18 07:08:43;;;;;;;46.42;32.20;;;;;;;20.62;100.00;100294.38;6243086;28;20716;-90
2022/08/18 07:12:06;;;;;;;47.63;31.35;;;;;;;20.53;100.00;100297.28;6250216;28;20123;-90
2022/08/18 07:15:11;;;;;;;45.83;30.65;;;;;;;20.51;100.00;100312.44;6261278;28;20036;-90
2022/08/18 07:18:20;;;;;;;47.55;31.40;;;;;;;20.60;100.00;100312.16;6256885;28;20030;-90
2022/08/18 07:21:28;;;;;;;48.63;31.05;;;;;;;20.59;100.00;100320.22;6246812;28;20164;-90
2022/08/18 07:24:40;;;;;;;50.50;31.65;;;;;;;20.63;100.00;100319.66;6241258;28;20376;-90
2022/08/18 07:27:47;;;;;;;42.67;29.65;;;;;;;20.33;100.00;100323.44;6244919;28;20184;-88
2022/08/18 07:30:49;;;;;;;45.65;30.15;;;;;;;20.34;100.00;100317.97;6269043;28;20510;-88
2022/08/18 07:34:32;;;;;;;42.95;28.27;;;;;;;20.30;100.00;100321.19;6250887;28;20052;-88
2022/08/18 07:37:53;;;;;;;42.55;28.25;;;;;;;20.31;100.00;100322.81;6254367;28;20044;-88
2022/08/18 07:41:01;;;;;;;45.80;29.40;;;;;;;20.36;100.00;100312.53;6244345;28;20072;-88
2022/08/18 07:44:15;;;;;;;44.80;29.60;;;;;;;20.29;100.00;100317.72;6245916;28;20134;-89
2022/08/18 07:47:48;;;;;;;46.67;29.50;;;;;;;20.24;100.00;100322.75;6242124;28;20740;-88
2022/08/18 07:51:02;;;;;;;47.97;29.60;;;;;;;20.21;100.00;100333.66;6245794;28;20049;-88
2022/08/18 07:54:36;;;;;;;51.65;29.95;;;;;;;20.19;100.00;100331.19;6247683;28;20037;-87
2022/08/18 07:58:07;;;;;;;43.30;28.58;;;;;;;20.18;100.00;100331.41;6245613;28;20052;-88
2022/08/18 08:01:30;;;;;;;45.60;27.35;;;;;;;20.28;100.00;100333.72;6258452;28;20072;-87
2022/08/18 08:04:44;;;;;;;43.53;27.90;;;;;;;20.26;100.00;100338.34;6249330;28;20049;-88
2022/08/18 08:08:00;;;;;;;39.28;25.65;;;;;;;20.22;100.00;100335.25;6252720;28;20159;-90
2022/08/18 08:11:34;;;;;;;38.92;26.95;;;;;;;20.22;100.00;100325.59;6249229;28;20048;-88
2022/08/18 08:14:53;;;;;;;39.83;26.23;;;;;;;20.30;100.00;100322.00;6243431;28;20321;-88
2022/08/18 08:18:35;;;;;;;39.70;26.17;;;;;;;20.44;100.00;100317.66;6254610;28;20038;-88
2022/08/18 08:21:47;;;;;;;38.13;26.00;;;;;;;20.47;100.00;100319.09;6149030;28;20187;-88
2022/08/18 08:25:24;;;;;;;35.10;24.48;;;;;;;20.38;100.00;100324.50;6149825;28;20450;-88
2022/08/18 08:29:09;;;;;;;35.60;23.88;;;;;;;20.39;100.00;100330.56;6131316;28;20306;-88
2022/08/18 08:32:19;;;;;;;37.47;24.77;;;;;;;20.43;100.00;100327.34;6146146;28;20093;-87
2022/08/18 08:35:45;;;;;;;39.80;26.30;;;;;;;20.43;100.00;100327.34;6150295;28;20515;-88
2022/08/18 08:38:58;;;;;;;36.85;25.48;;;;;;;20.50;100.00;100337.13;6102787;29;20051;-87
2022/08/18 08:42:24;;;;;;;36.67;25.20;;;;;;;20.55;100.00;100335.56;6100086;29;20074;-87
2022/08/18 08:45:38;;;;;;;35.97;24.38;;;;;;;20.63;100.00;100340.69;6096881;29;20062;-87
2022/08/18 08:48:49;;;;;;;37.92;25.05;;;;;;;20.66;100.00;100344.75;6100028;29;20066;-88
2022/08/18 08:52:06;;;;;;;37.85;24.58;;;;;;;20.79;100.00;100342.19;6104173;29;20051;-87
2022/08/18 08:55:14;;;;;;;36.38;23.90;;;;;;;20.95;100.00;100341.09;6148752;28;20088;-87
2022/08/18 08:58:30;;;;;;;38.58;24.55;;;;;;;21.08;100.00;100332.47;6192946;28;20172;-87
2022/08/18 09:02:12;;;;;;;35.85;24.35;;;;;;;21.14;100.00;100336.13;6195529;28;20050;-89
2022/08/18 09:05:41;;;;;;;35.85;25.17;;;;;;;21.34;100.00;100331.78;6197668;28;20062;-87
2022/08/18 09:08:56;;;;;;;37.35;24.92;;;;;;;21.52;100.00;100323.38;6199664;28;20430;-88
2022/08/18 09:12:10;;;;;;;35.45;23.80;;;;;;;21.65;100.00;100322.59;6199462;28;20673;-88
2022/08/18 09:15:19;;;;;;;38.25;25.02;;;;;;;21.85;100.00;100323.44;6216785;28;20172;-87
2022/08/18 09:18:42;;;;;;;34.65;23.10;;;;;;;21.95;100.00;100320.41;6251852;28;20037;-89
2022/08/18 09:22:23;;;;;;;37.55;24.90;;;;;;;22.04;100.00;100313.94;6250430;28;20083;-88
2022/08/18 09:25:32;;;;;;;32.97;22.90;;;;;;;22.29;100.00;100316.81;6258926;28;20041;-87
2022/08/18 09:28:33;;;;;;;36.85;24.88;;;;;;;22.31;100.00;100319.22;6254543;28;20044;-89
2022/08/18 09:31:37;;;;;;;38.53;26.38;;;;;;;22.20;100.00;100317.22;6241183;28;20047;-87
2022/08/18 09:34:43;;;;;;;37.58;25.55;;;;;;;22.17;100.00;100313.13;6247279;28;20455;-87
2022/08/18 09:41:55;;;;;;;33.63;23.90;;;;;;;22.36;100.00;100336.09;6252254;28;20041;-88
2022/08/18 09:45:01;;;;;;;34.20;23.90;;;;;;;22.62;99.21;100333.63;6248031;28;20551;-89
2022/08/18 09:48:04;;;;;;;35.28;24.98;;;;;;;22.77;97.06;100340.28;6233209;28;20086;-88
2022/08/18 09:51:33;;;;;;;32.42;24.00;;;;;;;22.78;95.95;100331.38;6250523;28;20040;-88
2022/08/18 09:54:50;;;;;;;33.55;24.05;;;;;;;22.85;94.41;100343.75;6247914;28;20037;-89
2022/08/18 09:58:18;;;;;;;34.70;25.30;;;;;;;22.73;94.24;100354.09;6256285;28;20040;-88
2022/08/18 10:01:30;;;;;;;32.55;23.95;;;;;;;22.53;95.94;100354.97;6271910;28;20105;-88
2022/08/18 10:04:34;;;;;;;34.92;24.58;;;;;;;22.51;96.19;100359.63;6237190;28;20106;-88
2022/08/18 10:07:39;;;;;;;37.08;24.83;;;;;;;22.62;94.75;100357.38;6260670;28;20041;-88
2022/08/18 10:11:06;;;;;;;33.17;23.48;;;;;;;22.73;95.22;100343.53;6259240;28;20501;-88
2022/08/18 10:14:18;;;;;;;31.50;23.67;;;;;;;22.79;94.09;100340.91;6253502;28;20045;-88
2022/08/18 10:17:48;;;;;;;36.67;23.25;;;;;;;22.91;94.31;100341.09;6258414;28;20041;-88
2022/08/18 10:21:02;;;;;;;30.15;22.55;;;;;;;23.01;93.34;100348.63;6244480;28;20049;-88
2022/08/18 10:24:04;;;;;;;32.00;23.05;;;;;;;23.09;92.23;100348.38;6276183;28;20044;-89
2022/08/18 10:27:35;;;;;;;36.03;27.00;;;;;;;23.22;89.58;100350.16;6262429;28;20503;-89
2022/08/18 10:30:37;;;;;;;32.80;24.15;;;;;;;23.26;91.02;100354.03;6253213;28;20503;-91
2022/08/18 10:34:01;;;;;;;29.42;23.05;;;;;;;23.21;88.45;100352.00;6243473;28;20178;-89
2022/08/18 10:37:21;;;;;;;27.08;20.70;;;;;;;23.00;91.17;100336.41;6247795;28;20045;-88
2022/08/18 10:40:27;;;;;;;27.88;20.77;;;;;;;22.96;90.03;100336.00;6252451;28;20411;-89
2022/08/18 10:43:37;;;;;;;27.88;20.80;;;;;;;22.91;89.84;100322.63;6257626;28;20037;-88
2022/08/18 10:46:57;;;;;;;23.75;18.25;;;;;;;23.21;87.48;100330.06;6256892;28;21029;-89
2022/08/18 10:50:03;;;;;;;27.70;19.83;;;;;;;23.48;88.05;100330.75;6247422;28;20479;-89
2022/08/18 10:53:24;;;;;;;26.38;21.42;;;;;;;23.74;86.76;100319.25;6242532;28;20033;-89
2022/08/18 10:56:49;;;;;;;26.92;20.13;;;;;;;23.92;86.71;100336.22;6248793;28;20437;-90
2022/08/18 11:00:18;;;;;;;24.15;19.77;;;;;;;24.09;83.42;100324.09;6245561;28;20041;-90
2022/08/18 11:03:44;;;;;;;19.63;16.00;;;;;;;24.18;79.35;100325.47;6251646;28;20163;-89
2022/08/18 11:07:03;;;;;;;21.02;16.73;;;;;;;24.15;81.71;100335.66;6244571;28;20034;-88
2022/08/18 11:10:23;;;;;;;22.10;17.75;;;;;;;24.15;81.08;100341.78;6250867;28;20098;-88
2022/08/18 11:13:50;;;;;;;20.17;15.95;;;;;;;24.37;77.53;100341.38;6248697;28;20126;-88
2022/08/18 11:17:17;;;;;;;17.85;15.20;;;;;;;24.60;78.14;100336.31;6249304;28;20513;-88
2022/08/18 11:20:30;;;;;;;21.45;16.17;;;;;;;25.03;76.14;100326.72;6252605;28;20079;-88
2022/08/18 11:23:32;;;;;;;18.98;15.35;;;;;;;24.95;75.79;100330.47;6247631;28;20046;-90
2022/08/18 11:26:56;;;;;;;17.92;14.48;;;;;;;24.77;76.15;100317.22;6232220;28;20081;-88
2022/08/18 11:30:01;;;;;;;15.00;12.85;;;;;;;24.49;75.89;100313.22;6246427;28;20082;-88
2022/08/18 11:33:04;;;;;;;13.60;12.10;;;;;;;24.68;77.02;100311.41;6248498;28;20056;-89
2022/08/18 11:36:07;;;;;;;14.50;10.68;;;;;;;25.05;75.81;100306.91;6246436;28;20131;-89
2022/08/18 11:39:11;;;;;;;21.33;11.23;;;;;;;25.26;73.37;100318.91;6247770;28;20394;-89
2022/08/18 11:42:18;;;;;;;11.32;10.05;;;;;;;25.39;74.97;100312.66;6248833;28;20048;-91
2022/08/18 11:45:32;;;;;;;11.32;10.20;;;;;;;25.38;72.03;100313.69;6247876;28;20045;-89
2022/08/18 11:48:39;;;;;;;12.27;10.95;;;;;;;25.27;72.86;100311.78;6249773;28;20164;-90
2022/08/18 11:52:28;;;;;;;12.05;9.98;;;;;;;25.26;73.62;100296.91;6241911;28;20143;-91
2022/08/18 11:55:35;;;;;;;;;;;;;;;24.98;73.84;100305.38;6244703;28;20049;-89
2022/08/18 11:58:58;;;;;;;11.57;10.15;;;;;;;25.25;72.91;100305.91;6250015;28;19932;-90
2022/08/18 12:02:02;;;;;;;10.63;9.57;;;;;;;25.44;71.12;100296.88;6247471;28;20098;-88
2022/08/18 12:05:06;;;;;;;11.32;10.13;;;;;;;25.46;70.85;100304.59;6242427;28;20040;-89
2022/08/18 12:08:46;;;;;;;11.98;10.32;;;;;;;25.64;69.93;100287.81;6249582;28;20494;-89
2022/08/18 12:12:01;;;;;;;9.85;8.85;;;;;;;25.78;68.30;100291.91;6248432;28;20581;-89
2022/08/18 12:15:11;;;;;;;10.57;9.32;;;;;;;25.88;67.23;100296.69;6248121;28;20037;-89
2022/08/18 12:18:23;;;;;;;10.25;8.73;;;;;;;26.16;67.25;100282.75;6245401;28;20064;-88
2022/08/18 12:21:29;;;;;;;11.23;8.90;;;;;;;26.58;66.00;100275.53;6251722;28;20503;-89
2022/08/18 12:24:32;;;;;;;10.82;9.15;;;;;;;26.85;64.19;100281.09;6222031;28;20049;-90
2022/08/18 12:27:40;;;;;;;11.32;9.77;;;;;;;26.87;64.19;100278.22;6252241;28;20041;-89
2022/08/18 12:30:42;;;;;;;12.27;9.43;;;;;;;26.96;65.25;100299.94;6248483;28;20414;-91
2022/08/18 12:33:44;;;;;;;11.23;9.27;;;;;;;27.00;64.75;100280.59;6255308;28;20049;-90
2022/08/18 12:37:02;;;;;;;12.95;10.48;;;;;;;26.74;64.86;100275.84;6256589;28;20510;-89
2022/08/18 12:40:11;;;;;;;13.20;10.50;;;;;;;26.30;66.81;100286.00;6246910;28;20047;-89
2022/08/18 12:43:13;;;;;;;13.52;10.40;;;;;;;26.00;67.22;100284.25;6243230;28;20136;-91
2022/08/18 12:46:17;;;;;;;13.98;9.82;;;;;;;25.91;67.65;100275.84;6249459;28;20037;-90
2022/08/18 12:49:22;;;;;;;10.82;9.45;;;;;;;26.01;66.61;100269.94;6248028;28;20125;-89
2022/08/18 12:52:24;;;;;;;11.90;9.95;;;;;;;26.02;67.15;100271.56;6248978;28;20052;-89
2022/08/18 12:55:30;;;;;;;13.77;10.20;;;;;;;26.23;67.13;100272.84;6249059;28;20124;-89
2022/08/18 12:58:32;;;;;;;10.73;9.63;;;;;;;26.51;63.89;100260.69;6248804;28;20040;-89
2022/08/18 13:01:38;;;;;;;10.50;9.50;;;;;;;26.62;64.03;100254.59;6248621;28;20046;-89
2022/08/18 13:04:40;;;;;;;10.38;9.30;;;;;;;26.79;63.22;100260.81;6253861;28;20053;-89
2022/08/18 13:07:44;;;;;;;12.50;10.80;;;;;;;26.89;64.01;100249.56;6251262;28;20454;-88
2022/08/18 13:10:49;;;;;;;10.90;9.90;;;;;;;27.02;62.62;100248.50;6251941;28;20064;-90
2022/08/18 13:13:59;;;;;;;11.80;10.25;;;;;;;27.22;60.69;100258.72;6242543;28;20037;-89
2022/08/18 13:17:10;;;;;;;11.13;9.85;;;;;;;27.38;60.20;100262.44;6252076;28;20041;-88
2022/08/18 13:20:30;;;;;;;10.32;9.32;;;;;;;27.79;55.96;100271.13;6249587;28;20041;-88
2022/08/18 13:23:32;;;;;;;10.95;9.85;;;;;;;28.12;55.26;100278.31;6244261;28;20038;-89
2022/08/18 13:26:40;;;;;;;9.98;8.98;;;;;;;28.18;55.95;100284.56;6247873;28;20042;-88
2022/08/18 13:29:42;;;;;;;10.10;9.10;;;;;;;28.45;58.39;100261.53;6255742;28;20049;-88
2022/08/18 13:32:45;;;;;;;9.93;8.90;;;;;;;28.78;54.90;100254.47;6243679;28;20041;-89
2022/08/18 13:36:01;;;;;;;9.65;8.75;;;;;;;28.96;53.92;100256.81;6246311;28;20041;-93
2022/08/18 13:39:03;;;;;;;10.68;9.68;;;;;;;28.87;52.82;100252.16;6250881;28;20136;-89
2022/08/18 13:42:05;;;;;;;11.07;9.98;;;;;;;29.03;54.47;100247.84;6243759;28;20143;-89
2022/08/18 13:45:27;;;;;;;10.32;9.25;;;;;;;28.87;53.90;100249.50;6251452;28;20064;-89
2022/08/18 13:48:30;;;;;;;8.88;8.00;;;;;;;28.62;54.70;100252.69;6245467;28;20048;-88
2022/08/18 13:51:33;;;;;;;8.70;7.90;;;;;;;28.44;55.45;100256.41;6245717;28;20115;-89
2022/08/18 13:54:36;;;;;;;9.13;8.23;;;;;;;28.43;57.10;100263.59;6247762;28;20037;-88
2022/08/18 13:57:40;;;;;;;9.82;8.82;;;;;;;28.42;56.82;100259.34;6250222;28;20403;-89
2022/08/18 14:00:44;;;;;;;11.50;9.13;;;;;;;28.53;56.25;100253.13;6238490;28;20494;-89
2022/08/18 14:03:47;;;;;;;9.40;8.52;;;;;;;28.71;58.38;100254.66;6244950;28;20116;-91
2022/08/18 14:06:52;;;;;;;8.90;7.97;;;;;;;28.94;55.36;100256.28;6244560;28;20072;-88
2022/08/18 14:09:58;;;;;;;8.95;7.60;;;;;;;29.15;54.55;100254.66;6245681;28;20042;-88
2022/08/18 14:13:08;;;;;;;10.82;8.07;;;;;;;28.95;55.31;100249.09;6246615;28;20499;-88
2022/08/18 14:16:25;;;;;;;9.55;8.52;;;;;;;28.69;53.69;100256.75;6251973;28;20052;-88
2022/08/18 14:29:32;;;;;;;9.52;8.60;;;;;;;28.73;55.29;100228.59;6247610;28;20049;-89
2022/08/18 14:32:49;;;;;;;8.90;7.82;;;;;;;28.76;56.77;100230.75;6243158;28;20050;-88
2022/08/18 14:35:52;;;;;;;8.77;7.88;;;;;;;28.55;56.92;100229.72;6254754;28;20037;-89
2022/08/18 14:39:09;;;;;;;8.88;7.70;;;;;;;28.24;56.84;100235.66;6252735;28;20045;-88
2022/08/18 14:42:14;;;;;;;10.65;7.72;;;;;;;27.82;57.84;100239.56;6248877;28;20139;-88
2022/08/18 14:45:17;;;;;;;10.23;7.47;;;;;;;27.62;57.70;100229.38;6253247;28;20036;-88